createdAt,value
2023-05-02T00:02:27.129Z,5.2
2023-05-02T00:08:13.438Z,5.2
2023-05-02T00:13:58.264Z,4.9
2023-05-02T00:19:44.280Z,5.1
2023-05-02T00:25:29.477Z,5.1
2023-05-02T00:31:14.643Z,5.5
2023-05-02T00:36:59.387Z,4.9
2023-05-02T00:42:44.161Z,4.9
2023-05-02T00:48:29.089Z,5.1
2023-05-02T00:54:13.725Z,5
2023-05-02T00:59:59.600Z,5.2
2023-05-02T01:05:47.196Z,5.1
2023-05-02T01:11:37.753Z,5
2023-05-02T01:17:24.116Z,4.8
2023-05-02T01:23:11.540Z,4.9
2023-05-02T01:29:06.216Z,4.5
2023-05-02T01:34:52.280Z,4.1
2023-05-02T01:40:39.459Z,4.7
2023-05-02T01:46:24.834Z,4.5
2023-05-02T01:52:12.906Z,4.5
2023-05-02T01:57:58.605Z,4.7
2023-05-02T02:03:44.171Z,4.7
2023-05-02T02:09:29.837Z,4.3
2023-05-02T02:15:19.329Z,4.8
2023-05-02T02:21:04.812Z,4.6
2023-05-02T02:26:49.649Z,4.7
2023-05-02T02:32:34.440Z,4.7
2023-05-02T02:38:23.047Z,4.8
2023-05-02T02:44:15.961Z,5.3
2023-05-02T02:50:05.684Z,4.9
2023-05-02T02:55:54.487Z,5.8
2023-05-02T03:01:42.366Z,5.8
2023-05-02T03:07:29.677Z,5.6
2023-05-02T03:13:14.376Z,5.7
2023-05-02T03:18:59.178Z,5.9
2023-05-02T03:24:43.867Z,5.7
2023-05-02T03:30:28.456Z,5.7
2023-05-02T03:36:13.503Z,6
2023-05-02T03:41:58.008Z,6.2
2023-05-02T03:47:42.721Z,6.6
2023-05-02T03:53:27.507Z,6.8
2023-05-02T03:59:12.156Z,7.4
2023-05-02T04:04:56.869Z,8
2023-05-02T04:10:41.758Z,8.1
2023-05-02T04:16:26.526Z,8.2
2023-05-02T04:22:11.205Z,8.2
2023-05-02T04:27:55.892Z,8.2
2023-05-02T04:33:40.893Z,8.2
2023-05-02T04:39:26.645Z,8.8
2023-05-02T04:45:11.876Z,8.8
2023-05-02T04:50:56.730Z,9.1
2023-05-02T04:56:41.572Z,9.1
2023-05-02T05:02:26.737Z,9.3
2023-05-02T05:08:11.456Z,9.6
2023-05-02T05:13:56.192Z,9.1
2023-05-02T05:19:41.118Z,9
2023-05-02T05:25:25.828Z,8.4
2023-05-02T05:31:18.132Z,8.6
2023-05-02T05:37:02.773Z,8.5
2023-05-02T05:42:47.531Z,8.2
2023-05-02T05:48:32.451Z,8.2
2023-05-02T05:54:18.744Z,7.7
2023-05-02T06:00:04.642Z,8.2
2023-05-02T06:05:49.228Z,8
2023-05-02T06:11:34.281Z,7.7
2023-05-02T06:17:19.026Z,8.1
2023-05-02T06:23:04.595Z,8
2023-05-02T06:28:49.434Z,8.1
2023-05-02T06:34:34.355Z,8.4
2023-05-02T06:40:19.711Z,8.1
2023-05-02T06:46:06.624Z,8.2
2023-05-02T06:51:51.361Z,8.5
2023-05-02T06:57:36.083Z,9.1
2023-05-02T07:03:21.692Z,8.5
2023-05-02T07:09:06.553Z,8.6
2023-05-02T07:14:51.283Z,8.5
2023-05-02T07:20:35.967Z,8.3
2023-05-02T07:26:20.753Z,8.9
2023-05-02T07:32:06.260Z,9.2
2023-05-02T07:37:51.565Z,8.4
2023-05-02T07:43:36.273Z,8.2
2023-05-02T07:49:20.933Z,8.6
2023-05-02T07:55:05.824Z,8.2
2023-05-02T08:00:50.698Z,7.6
2023-05-02T08:06:36.468Z,7.1
2023-05-02T08:12:21.433Z,7.3
2023-05-02T08:18:07.188Z,6.9
2023-05-02T08:23:51.963Z,6.8
2023-05-02T08:29:36.916Z,6.4
2023-05-02T08:35:21.578Z,6.5
2023-05-02T08:41:11.446Z,6.3
2023-05-02T08:47:02.959Z,6.3
2023-05-02T08:52:48.185Z,6.1
2023-05-02T08:58:32.994Z,6.1
2023-05-02T09:04:17.869Z,6.7
2023-05-02T09:10:02.749Z,6.4
2023-05-02T09:15:52.414Z,6.4
2023-05-02T09:21:41.975Z,6.6
2023-05-02T09:27:27.137Z,6.4
2023-05-02T09:33:11.900Z,6.2
2023-05-02T09:39:01.374Z,6.3
2023-05-02T09:44:46.321Z,6.2
2023-05-02T09:50:40.831Z,6.3
2023-05-02T09:56:27.317Z,6.2
2023-05-02T10:02:12.223Z,6
2023-05-02T10:07:56.917Z,5.9
2023-05-02T10:13:42.830Z,5.8
2023-05-02T10:19:31.975Z,5.4
2023-05-02T10:25:16.850Z,5.7
2023-05-02T10:31:02.736Z,5.5
2023-05-02T10:36:48.064Z,6
2023-05-02T10:42:32.948Z,5.2
2023-05-02T10:48:24.528Z,5.5
2023-05-02T10:54:25.261Z,5.7
2023-05-02T11:00:20.685Z,5.2
2023-05-02T11:06:11.613Z,5.3
2023-05-02T11:11:57.056Z,5.3
2023-05-02T11:17:55.526Z,4.8
2023-05-02T11:23:40.156Z,5
2023-05-02T11:29:35.728Z,4.7
2023-05-02T11:35:21.432Z,5.1
2023-05-02T11:41:06.480Z,5.2
2023-05-02T11:46:51.415Z,5
2023-05-02T11:52:39.094Z,4.8
2023-05-02T11:58:24.644Z,4.6
2023-05-02T12:04:10.526Z,4.4
2023-05-02T12:09:58.141Z,4.3
2023-05-02T12:15:43.163Z,4.5
2023-05-02T12:21:28.075Z,4.4
2023-05-02T12:27:16.502Z,4.3
2023-05-02T12:33:04.573Z,4.3
2023-05-02T12:38:55.658Z,4.5
2023-05-02T12:44:44.123Z,4.6
2023-05-02T12:50:40.647Z,4.4
2023-05-02T12:56:25.346Z,4.7
2023-05-02T13:02:09.870Z,4.7
2023-05-02T13:07:54.610Z,4.5
2023-05-02T13:13:39.461Z,4.5
2023-05-02T13:19:24.667Z,5.1
2023-05-02T13:25:10.798Z,5.3
2023-05-02T13:30:56.036Z,5
2023-05-02T13:36:41.064Z,5
2023-05-02T13:42:25.785Z,4.4
2023-05-02T13:48:11.126Z,4.3
2023-05-02T13:53:55.994Z,4.5
2023-05-02T13:59:41.512Z,4.1
2023-05-02T14:05:26.806Z,4.1
2023-05-02T14:11:11.771Z,4.4
2023-05-02T14:16:56.447Z,3.8
2023-05-02T14:22:40.959Z,3.7
2023-05-02T14:28:25.456Z,3.6
2023-05-02T14:34:11.413Z,3.2
2023-05-02T14:39:57.384Z,3.4
2023-05-02T14:45:42.073Z,3.3
2023-05-02T14:51:26.779Z,3
2023-05-02T14:57:11.599Z,3.1
2023-05-02T15:02:57.368Z,3.1
2023-05-02T15:08:42.250Z,3.1
2023-05-02T15:14:27.856Z,2.9
2023-05-02T15:20:13.883Z,2.6
2023-05-02T15:25:58.721Z,2.4
2023-05-02T15:31:43.507Z,2.4
2023-05-02T15:37:28.017Z,2.5
2023-05-02T15:43:13.042Z,1.9
2023-05-02T15:48:57.626Z,2
2023-05-02T15:54:42.312Z,1.7
2023-05-02T16:00:27.129Z,1.7
2023-05-02T16:06:11.911Z,1.3
2023-05-02T16:11:56.658Z,1.6
2023-05-02T16:17:41.216Z,1.4
2023-05-02T16:23:26.167Z,1.3
2023-05-02T16:29:11.049Z,1.6
2023-05-02T16:34:55.909Z,1.8
2023-05-02T16:40:40.573Z,1.4
2023-05-02T16:46:25.289Z,1.3
2023-05-02T16:52:09.985Z,1.2
2023-05-02T16:57:54.783Z,1.3
2023-05-02T17:03:39.735Z,1.2
2023-05-02T17:09:24.537Z,1.6
2023-05-02T17:15:09.801Z,1.2
2023-05-02T17:20:54.503Z,1.7
2023-05-02T17:26:39.348Z,2
2023-05-02T17:32:24.092Z,3.3
2023-05-02T17:38:09.187Z,11.6
2023-05-02T17:43:53.935Z,8.4
2023-05-02T17:49:39.282Z,9.5
2023-05-02T17:55:24.001Z,8.9
2023-05-02T18:01:13.728Z,8.3
2023-05-02T18:06:58.564Z,8.8
2023-05-02T18:12:43.106Z,11.2
2023-05-02T18:18:28.111Z,44.2
2023-05-02T18:24:13.502Z,52.7
2023-05-02T18:29:58.302Z,50.3
2023-05-02T18:35:46.535Z,47.5
2023-05-02T18:41:31.163Z,45.2
2023-05-02T18:47:15.994Z,44.5
2023-05-02T18:53:00.625Z,36.2
2023-05-02T18:58:46.426Z,35.3
2023-05-02T19:04:32.179Z,33.5
2023-05-02T19:10:16.984Z,28.5
2023-05-02T19:16:01.960Z,28.5
2023-05-02T19:21:46.708Z,26.7
2023-05-02T19:27:31.616Z,24.8
2023-05-02T19:33:16.352Z,24.2
2023-05-02T19:39:00.929Z,23.4
2023-05-02T19:44:46.559Z,21.9
2023-05-02T19:50:31.710Z,19.9
2023-05-02T19:56:16.402Z,18.8
2023-05-02T20:02:01.018Z,17.7
2023-05-02T20:07:45.574Z,16.9
2023-05-02T20:13:30.347Z,15.5
2023-05-02T20:19:16.452Z,15.1
2023-05-02T20:25:01.778Z,14.7
2023-05-02T20:30:46.559Z,13.5
2023-05-02T20:36:31.221Z,12.8
2023-05-02T20:42:15.914Z,12.7
2023-05-02T20:48:00.941Z,11.9
2023-05-02T20:53:45.917Z,10.6
2023-05-02T20:59:30.639Z,9.9
2023-05-02T21:05:15.482Z,9.5
2023-05-02T21:11:00.267Z,8.8
2023-05-02T21:16:45.067Z,9.2
2023-05-02T21:22:29.589Z,8
2023-05-02T21:28:15.672Z,8.2
2023-05-02T21:34:00.264Z,7.7
2023-05-02T21:39:44.919Z,7.1
2023-05-02T21:45:29.584Z,7
2023-05-02T21:51:14.474Z,7
2023-05-02T21:56:59.174Z,6.6
2023-05-02T22:02:44.033Z,6.6
2023-05-02T22:08:28.869Z,5.7
2023-05-02T22:14:13.564Z,6
2023-05-02T22:19:58.208Z,5.6
2023-05-02T22:25:44.855Z,5.4
2023-05-02T22:31:29.684Z,5.3
2023-05-02T22:37:14.457Z,4.9
2023-05-02T22:42:59.200Z,5
2023-05-02T22:48:43.941Z,4.7
2023-05-02T22:54:28.846Z,4.5
2023-05-02T23:00:15.396Z,5
2023-05-02T23:06:00.294Z,4.1
2023-05-02T23:11:45.050Z,4.3
2023-05-02T23:17:29.963Z,4.1
2023-05-02T23:23:14.908Z,4.3
2023-05-02T23:28:59.670Z,3.7
2023-05-02T23:34:44.354Z,3.8
2023-05-02T23:40:29.442Z,3.7
2023-05-02T23:46:14.204Z,3.7
2023-05-02T23:51:59.013Z,3.7
2023-05-02T23:57:43.898Z,3.3
